createdAt,value
2023-04-04T00:00:27.251Z,99122.91
2023-04-04T00:02:55.318Z,99119.81
2023-04-04T00:05:22.016Z,99124.41
2023-04-04T00:07:48.947Z,99114.72
2023-04-04T00:10:16.492Z,99076.72
2023-04-04T00:12:44.108Z,99111.78
2023-04-04T00:15:11.234Z,99079.88
2023-04-04T00:17:38.311Z,99106.88
2023-04-04T00:20:05.521Z,99109.75
2023-04-04T00:22:32.305Z,99119.31
2023-04-04T00:24:59.131Z,99116.91
2023-04-04T00:27:26.110Z,99062.41
2023-04-04T00:29:53.647Z,99107.66
2023-04-04T00:32:20.829Z,99097.97
2023-04-04T00:34:52.530Z,99095.09
2023-04-04T00:37:20.278Z,99101.53
2023-04-04T00:39:47.700Z,99100.59
2023-04-04T00:42:14.322Z,99099.91
2023-04-04T00:44:41.418Z,99091.81
2023-04-04T00:47:08.143Z,99090.84
2023-04-04T00:49:34.699Z,99087.53
2023-04-04T00:52:01.286Z,99089.47
2023-04-04T00:54:30.002Z,99086.16
2023-04-04T00:56:56.618Z,99080.94
2023-04-04T00:59:24.156Z,99080.38
2023-04-04T01:01:50.921Z,99077.91
2023-04-04T01:04:17.845Z,99054.66
2023-04-04T01:06:45.758Z,99072.00
2023-04-04T01:09:13.231Z,99065.09
2023-04-04T01:11:40.040Z,99075.16
2023-04-04T01:14:07.827Z,99070.75
2023-04-04T01:16:36.170Z,99071.56
2023-04-04T01:19:09.051Z,99074.88
2023-04-04T01:21:37.323Z,99070.50
2023-04-04T01:24:05.236Z,99064.53
2023-04-04T01:26:47.149Z,99069.09
2023-04-04T01:29:14.193Z,99056.38
2023-04-04T01:31:48.046Z,99063.28
2023-04-04T01:34:52.508Z,99059.72
2023-04-04T01:37:37.503Z,99062.41
2023-04-04T01:40:21.833Z,99058.56
2023-04-04T01:42:52.458Z,99059.53
2023-04-04T01:45:22.991Z,99056.09
2023-04-04T01:47:50.198Z,99050.28
2023-04-04T01:50:20.110Z,99051.97
2023-04-04T01:52:50.077Z,99048.81
2023-04-04T01:55:16.689Z,99048.38
2023-04-04T01:57:43.448Z,99046.69
2023-04-04T02:00:11.369Z,99043.25
2023-04-04T02:02:44.234Z,99038.44
2023-04-04T02:05:11.485Z,99038.66
2023-04-04T02:07:38.592Z,99039.50
2023-04-04T02:10:12.665Z,99037.47
2023-04-04T02:12:40.527Z,99038.94
2023-04-04T02:15:07.755Z,99038.66
2023-04-04T02:17:35.954Z,99044.16
2023-04-04T02:20:03.757Z,99003.31
2023-04-04T02:22:30.617Z,99045.69
2023-04-04T02:24:58.803Z,99039.91
2023-04-04T02:27:25.375Z,99044.91
2023-04-04T02:29:52.601Z,99043.50
2023-04-04T02:32:19.160Z,99052.88
2023-04-04T02:34:46.118Z,99044.59
2023-04-04T02:37:14.779Z,99046.41
2023-04-04T02:39:42.449Z,99048.06
2023-04-04T02:42:08.935Z,99050.28
2023-04-04T02:44:36.053Z,99049.59
2023-04-04T02:47:03.391Z,99050.69
2023-04-04T02:49:30.899Z,99043.19
2023-04-04T02:51:58.046Z,99044.63
2023-04-04T02:54:28.508Z,99050.69
2023-04-04T02:56:55.683Z,99046.72
2023-04-04T02:59:22.313Z,99057.59
2023-04-04T03:01:48.998Z,99051.91
2023-04-04T03:04:15.652Z,99044.97
2023-04-04T03:06:44.146Z,99049.97
2023-04-04T03:09:10.757Z,99050.75
2023-04-04T03:11:37.331Z,99054.50
2023-04-04T03:14:03.865Z,99059.19
2023-04-04T03:16:35.234Z,99048.19
2023-04-04T03:19:02.317Z,99019.47
2023-04-04T03:21:29.480Z,99016.06
2023-04-04T03:23:58.051Z,99064.03
2023-04-04T03:26:25.401Z,99058.72
2023-04-04T03:28:52.816Z,99053.22
2023-04-04T03:31:22.117Z,99058.88
2023-04-04T03:33:49.171Z,99057.41
2023-04-04T03:36:16.070Z,99057.53
2023-04-04T03:38:43.072Z,99059.81
2023-04-04T03:41:10.559Z,99051.50
2023-04-04T03:43:37.459Z,99058.53
2023-04-04T03:46:06.132Z,99045.28
2023-04-04T03:48:34.170Z,99008.34
2023-04-04T03:51:04.693Z,99047.44
2023-04-04T03:53:31.433Z,99045.81
2023-04-04T03:55:58.299Z,99051.50
2023-04-04T03:58:24.897Z,99037.13
2023-04-04T04:00:51.365Z,99043.66
2023-04-04T04:03:17.975Z,99038.22
2023-04-04T04:05:45.930Z,99047.22
2023-04-04T04:08:12.748Z,99040.91
2023-04-04T04:10:39.638Z,98993.28
2023-04-04T04:13:06.457Z,99042.22
2023-04-04T04:15:33.829Z,99041.19
2023-04-04T04:18:03.768Z,99039.59
2023-04-04T04:20:31.319Z,99045.75
2023-04-04T04:22:57.781Z,99043.44
2023-04-04T04:25:24.266Z,99035.66
2023-04-04T04:28:09.963Z,99053.41
2023-04-04T04:30:36.491Z,99045.06
2023-04-04T04:33:04.633Z,99043.91
2023-04-04T04:35:39.740Z,99043.66
2023-04-04T04:38:08.289Z,99047.19
2023-04-04T04:40:35.567Z,99041.53
2023-04-04T04:43:11.452Z,99045.75
2023-04-04T04:45:38.214Z,99042.69
2023-04-04T04:48:07.941Z,99041.75
2023-04-04T04:50:44.488Z,99037.34
2023-04-04T04:53:14.206Z,99041.75
2023-04-04T04:55:43.040Z,99043.75
2023-04-04T04:58:11.162Z,99048.16
2023-04-04T05:00:41.517Z,99037.22
2023-04-04T05:03:08.500Z,99041.75
2023-04-04T05:05:43.331Z,99038.38
2023-04-04T05:08:12.987Z,99046.03
2023-04-04T05:10:50.798Z,99002.13
2023-04-04T05:13:19.710Z,99047.88
2023-04-04T05:15:47.961Z,99036.91
2023-04-04T05:18:15.602Z,99036.66
2023-04-04T05:20:43.835Z,99039.28
2023-04-04T05:23:13.866Z,99048.06
2023-04-04T05:25:42.368Z,99033.81
2023-04-04T05:28:09.570Z,99041.09
2023-04-04T05:30:39.257Z,99052.44
2023-04-04T05:33:27.570Z,99044.63
2023-04-04T05:36:13.133Z,99048.53
2023-04-04T05:38:52.039Z,99042.84
2023-04-04T05:41:22.028Z,99042.94
2023-04-04T05:43:50.742Z,99042.13
2023-04-04T05:46:23.494Z,99043.31
2023-04-04T05:48:52.522Z,99050.38
2023-04-04T05:51:19.696Z,99041.75
2023-04-04T05:54:12.637Z,99050.38
2023-04-04T05:56:39.744Z,99051.59
2023-04-04T05:59:12.903Z,99048.56
2023-04-04T06:01:52.486Z,99048.69
2023-04-04T06:04:19.051Z,99043.63
2023-04-04T06:06:46.875Z,99054.25
2023-04-04T06:09:13.459Z,99056.47
2023-04-04T06:11:40.268Z,99047.19
2023-04-04T06:14:09.748Z,99048.81
2023-04-04T06:16:36.391Z,99055.25
2023-04-04T06:19:03.502Z,99040.28
2023-04-04T06:21:30.613Z,99036.59
2023-04-04T06:23:58.158Z,99048.50
2023-04-04T06:26:26.302Z,99050.13
2023-04-04T06:28:54.884Z,99050.91
2023-04-04T06:31:29.258Z,99043.66
2023-04-04T06:34:01.649Z,99048.22
2023-04-04T06:36:32.013Z,99053.69
2023-04-04T06:39:02.220Z,99052.38
2023-04-04T06:41:29.450Z,99051.44
2023-04-04T06:43:56.556Z,99058.13
2023-04-04T06:46:23.489Z,99063.69
2023-04-04T06:48:50.157Z,99059.69
2023-04-04T06:51:17.972Z,99057.53
2023-04-04T06:53:47.193Z,99062.22
2023-04-04T06:56:13.770Z,99047.91
2023-04-04T06:58:40.765Z,99008.72
2023-04-04T07:01:08.072Z,99083.13
2023-04-04T07:03:34.822Z,99017.28
2023-04-04T07:06:05.321Z,99070.03
2023-04-04T07:08:36.230Z,99077.09
2023-04-04T07:11:03.630Z,99085.78
2023-04-04T07:13:30.295Z,99068.88
2023-04-04T07:15:57.068Z,99076.19
2023-04-04T07:18:23.825Z,99070.53
2023-04-04T07:20:50.456Z,99071.34
2023-04-04T07:23:16.929Z,99064.91
2023-04-04T07:25:44.416Z,99056.78
2023-04-04T07:28:13.185Z,99071.94
2023-04-04T07:30:40.395Z,99068.22
2023-04-04T07:33:07.181Z,99065.31
2023-04-04T07:35:36.379Z,99058.91
2023-04-04T07:38:04.223Z,99056.59
2023-04-04T07:40:31.835Z,99062.00
2023-04-04T07:42:58.498Z,99051.94
2023-04-04T07:45:25.039Z,99056.88
2023-04-04T07:47:51.719Z,99058.03
2023-04-04T07:50:18.681Z,99051.16
2023-04-04T07:52:51.506Z,99058.78
2023-04-04T07:55:19.906Z,99064.22
2023-04-04T07:57:47.220Z,99053.28
2023-04-04T08:00:14.638Z,99064.88
2023-04-04T08:02:43.780Z,99060.88
2023-04-04T08:05:10.780Z,99059.38
2023-04-04T08:07:37.629Z,99064.66
2023-04-04T08:10:04.523Z,99061.81
2023-04-04T08:12:30.981Z,99048.50
2023-04-04T08:14:57.438Z,99040.09
2023-04-04T08:17:24.753Z,99056.88
2023-04-04T08:19:51.513Z,99054.22
2023-04-04T08:22:18.349Z,99049.06
2023-04-04T08:24:44.883Z,99047.69
2023-04-04T08:27:11.522Z,99049.00
2023-04-04T08:29:38.486Z,99044.38
2023-04-04T08:32:05.164Z,99055.59
2023-04-04T08:34:32.113Z,99058.59
2023-04-04T08:36:59.908Z,99063.81
2023-04-04T08:39:27.227Z,99050.44
2023-04-04T08:42:05.803Z,99046.50
2023-04-04T08:44:34.244Z,99051.53
2023-04-04T08:47:05.597Z,99043.38
2023-04-04T08:49:38.618Z,99004.25
2023-04-04T08:52:06.438Z,99046.16
2023-04-04T08:54:34.378Z,99045.78
2023-04-04T08:57:01.694Z,99044.03
2023-04-04T08:59:28.332Z,99043.06
2023-04-04T09:02:05.236Z,99039.75
2023-04-04T09:04:32.084Z,99041.56
2023-04-04T09:07:00.531Z,99048.84
2023-04-04T09:09:28.026Z,99058.53
2023-04-04T09:11:55.523Z,99046.94
2023-04-04T09:14:25.371Z,99057.66
2023-04-04T09:16:52.159Z,99057.94
2023-04-04T09:19:19.142Z,99047.94
2023-04-04T09:21:49.655Z,99048.78
2023-04-04T09:24:16.391Z,99054.84
2023-04-04T09:26:53.720Z,99044.22
2023-04-04T09:29:21.864Z,99052.16
2023-04-04T09:31:49.569Z,99042.25
2023-04-04T09:34:18.918Z,98999.63
2023-04-04T09:36:46.769Z,99049.47
2023-04-04T09:39:16.678Z,98970.34
2023-04-04T09:41:45.509Z,99040.22
2023-04-04T09:44:13.141Z,99049.38
2023-04-04T09:46:40.644Z,99006.34
2023-04-04T09:49:13.354Z,99049.47
2023-04-04T09:51:43.479Z,99019.97
2023-04-04T09:54:18.670Z,99050.28
2023-04-04T09:56:53.372Z,99063.03
2023-04-04T09:59:20.074Z,99049.31
2023-04-04T10:01:47.121Z,99056.25
2023-04-04T10:04:15.570Z,99039.75
2023-04-04T10:06:43.888Z,99038.09
2023-04-04T10:09:10.402Z,99048.03
2023-04-04T10:11:38.603Z,99053.94
2023-04-04T10:14:05.365Z,99041.75
2023-04-04T10:16:33.631Z,99047.69
2023-04-04T10:19:01.814Z,99055.25
2023-04-04T10:21:31.400Z,99049.00
2023-04-04T10:23:59.382Z,99049.47
2023-04-04T10:26:26.338Z,99041.91
2023-04-04T10:28:53.371Z,99054.00
2023-04-04T10:31:22.352Z,99047.97
2023-04-04T10:34:12.924Z,99047.94
2023-04-04T10:36:54.431Z,99065.34
2023-04-04T10:39:29.655Z,99049.97
2023-04-04T10:41:58.870Z,99040.66
2023-04-04T10:44:55.675Z,99034.97
2023-04-04T10:47:23.211Z,99043.00
2023-04-04T10:49:51.266Z,99060.19
2023-04-04T10:52:23.652Z,99039.72
2023-04-04T10:54:52.901Z,99036.28
2023-04-04T10:57:20.206Z,99032.84
2023-04-04T11:00:06.804Z,99029.16
2023-04-04T11:02:57.575Z,99032.84
2023-04-04T11:05:46.846Z,99024.56
2023-04-04T11:08:24.824Z,99026.81
2023-04-04T11:10:53.480Z,99018.19
2023-04-04T11:13:41.486Z,99013.41
2023-04-04T11:16:15.892Z,99009.50
2023-04-04T11:18:42.978Z,99008.75
2023-04-04T11:21:13.903Z,99006.91
2023-04-04T11:23:49.411Z,99005.13
2023-04-04T11:26:19.233Z,99002.34
2023-04-04T11:28:46.387Z,98998.47
2023-04-04T11:31:23.976Z,98998.25
2023-04-04T11:34:03.622Z,99021.84
2023-04-04T11:36:36.344Z,99007.06
2023-04-04T11:39:10.669Z,99015.34
2023-04-04T11:41:52.932Z,98994.72
2023-04-04T11:44:23.782Z,98985.88
2023-04-04T11:47:06.088Z,98987.50
2023-04-04T11:49:41.185Z,98982.81
2023-04-04T11:52:10.548Z,98955.44
2023-04-04T11:54:39.078Z,98952.97
2023-04-04T11:57:12.890Z,98993.03
2023-04-04T11:59:41.436Z,98993.38
2023-04-04T12:02:12.652Z,98980.34
2023-04-04T12:04:43.517Z,98942.41
2023-04-04T12:07:11.013Z,98993.03
2023-04-04T12:09:38.702Z,98981.03
2023-04-04T12:12:07.638Z,98979.03
2023-04-04T12:14:34.438Z,98977.00
2023-04-04T12:17:02.788Z,98972.69
2023-04-04T12:19:29.704Z,98985.75
2023-04-04T12:21:58.115Z,98977.19
2023-04-04T12:24:24.680Z,98983.16
2023-04-04T12:26:53.192Z,98982.00
2023-04-04T12:29:21.997Z,98983.31
2023-04-04T12:31:49.915Z,98972.03
2023-04-04T12:34:19.076Z,98966.72
2023-04-04T12:36:50.036Z,98975.84
2023-04-04T12:39:17.664Z,98960.81
2023-04-04T12:42:02.760Z,98945.47
2023-04-04T12:44:36.186Z,98968.22
2023-04-04T12:47:06.069Z,98957.88
2023-04-04T12:49:39.104Z,98959.44
2023-04-04T12:52:08.013Z,98969.31
2023-04-04T12:54:38.735Z,98952.19
2023-04-04T12:57:08.077Z,98986.59
2023-04-04T12:59:37.068Z,98951.22
2023-04-04T13:02:13.517Z,98947.00
2023-04-04T13:04:40.665Z,98947.63
2023-04-04T13:07:32.477Z,98940.94
2023-04-04T13:10:05.041Z,98938.22
2023-04-04T13:13:00.504Z,98936.06
2023-04-04T13:15:49.170Z,98938.72
2023-04-04T13:18:21.916Z,98928.50
2023-04-04T13:20:49.238Z,98939.06
2023-04-04T13:23:16.275Z,98934.81
2023-04-04T13:25:43.187Z,98921.13
2023-04-04T13:28:11.577Z,98914.25
2023-04-04T13:30:38.947Z,98916.19
2023-04-04T13:33:06.205Z,98915.88
2023-04-04T13:35:33.143Z,98903.44
2023-04-04T13:37:59.575Z,98916.19
2023-04-04T13:40:27.739Z,98875.31
2023-04-04T13:42:54.497Z,98902.53
2023-04-04T13:45:21.153Z,98918.84
2023-04-04T13:47:47.807Z,98905.59
2023-04-04T13:50:14.524Z,98902.94
2023-04-04T13:52:41.079Z,98892.75
2023-04-04T13:55:08.078Z,98851.78
2023-04-04T13:57:34.673Z,98878.03
2023-04-04T14:00:01.412Z,98894.91
2023-04-04T14:02:37.064Z,98910.59
2023-04-04T14:05:03.762Z,98891.16
2023-04-04T14:07:30.483Z,98892.06
2023-04-04T14:09:57.056Z,98887.56
2023-04-04T14:12:24.853Z,98892.78
2023-04-04T14:14:51.656Z,98897.09
2023-04-04T14:17:18.141Z,98888.75
2023-04-04T14:19:44.699Z,98874.91
2023-04-04T14:22:11.456Z,98871.72
2023-04-04T14:24:39.290Z,98888.63
2023-04-04T14:27:07.315Z,98889.06
2023-04-04T14:29:33.802Z,98881.84
2023-04-04T14:32:00.462Z,98881.00
2023-04-04T14:34:27.901Z,98880.84
2023-04-04T14:36:54.447Z,98878.09
2023-04-04T14:39:21.476Z,98879.44
2023-04-04T14:41:48.238Z,98834.63
2023-04-04T14:44:15.481Z,98866.69
2023-04-04T14:46:42.045Z,98866.97
2023-04-04T14:49:08.543Z,98873.91
2023-04-04T14:51:35.014Z,98871.66
2023-04-04T14:54:01.618Z,98863.00
2023-04-04T14:56:28.246Z,98867.03
2023-04-04T14:58:54.790Z,98854.91
2023-04-04T15:01:22.795Z,98870.16
2023-04-04T15:03:49.856Z,98849.31
2023-04-04T15:06:16.488Z,98844.06
2023-04-04T15:08:44.023Z,98844.13
2023-04-04T15:11:15.767Z,98847.41
2023-04-04T15:13:43.797Z,98852.06
2023-04-04T15:16:12.848Z,98854.97
2023-04-04T15:18:39.534Z,98853.22
2023-04-04T15:21:06.149Z,98845.88
2023-04-04T15:23:32.592Z,98852.63
2023-04-04T15:25:59.146Z,98846.03
2023-04-04T15:28:25.657Z,98842.84
2023-04-04T15:30:52.616Z,98847.44
2023-04-04T15:33:19.111Z,98842.81
2023-04-04T15:35:47.032Z,98847.78
2023-04-04T15:38:13.950Z,98857.75
2023-04-04T15:40:41.228Z,98849.38
2023-04-04T15:43:07.880Z,98844.84
2023-04-04T15:45:34.768Z,98828.94
2023-04-04T15:48:01.441Z,98824.88
2023-04-04T15:50:28.299Z,98824.88
2023-04-04T15:52:54.846Z,98827.59
2023-04-04T15:55:22.202Z,98823.94
2023-04-04T15:57:48.807Z,98823.66
2023-04-04T16:00:16.886Z,98839.31
2023-04-04T16:02:44.473Z,98818.88
2023-04-04T16:05:11.309Z,98823.69
2023-04-04T16:07:37.952Z,98824.16
2023-04-04T16:10:04.937Z,98827.47
2023-04-04T16:12:31.806Z,98788.84
2023-04-04T16:14:58.430Z,98808.13
2023-04-04T16:17:26.155Z,98766.47
2023-04-04T16:19:52.973Z,98803.59
2023-04-04T16:22:19.474Z,98800.13
2023-04-04T16:24:46.203Z,98792.63
2023-04-04T16:27:12.693Z,98760.38
2023-04-04T16:29:39.571Z,98796.50
2023-04-04T16:32:08.254Z,98800.31
2023-04-04T16:34:37.416Z,98802.84
2023-04-04T16:37:04.206Z,98798.69
2023-04-04T16:39:30.826Z,98800.13
2023-04-04T16:41:58.086Z,98803.34
2023-04-04T16:44:24.567Z,98792.72
2023-04-04T16:46:51.639Z,98792.09
2023-04-04T16:49:18.317Z,98780.78
2023-04-04T16:51:44.928Z,98782.56
2023-04-04T16:54:12.553Z,98790.69
2023-04-04T16:56:39.233Z,98796.50
2023-04-04T16:59:06.214Z,98792.03
2023-04-04T17:01:33.513Z,98788.81
2023-04-04T17:04:00.159Z,98800.72
2023-04-04T17:06:27.426Z,98806.53
2023-04-04T17:08:54.001Z,98761.19
2023-04-04T17:11:20.949Z,98800.19
2023-04-04T17:13:47.653Z,98805.66
2023-04-04T17:16:14.479Z,98805.97
2023-04-04T17:18:41.207Z,98802.31
2023-04-04T17:21:07.703Z,98798.78
2023-04-04T17:23:36.603Z,98784.16
2023-04-04T17:26:03.469Z,98785.88
2023-04-04T17:28:31.331Z,98797.78
2023-04-04T17:30:59.015Z,98791.44
2023-04-04T17:33:27.507Z,98798.91
2023-04-04T17:35:54.257Z,98790.66
2023-04-04T17:38:22.432Z,98796.91
2023-04-04T17:40:49.937Z,98788.03
2023-04-04T17:43:17.245Z,98781.47
2023-04-04T17:45:45.878Z,98789.50
2023-04-04T17:48:12.589Z,98787.69
2023-04-04T17:50:39.467Z,98788.38
2023-04-04T17:53:07.396Z,98785.94
2023-04-04T17:55:36.535Z,98792.72
2023-04-04T17:58:03.131Z,98795.41
2023-04-04T18:00:30.352Z,98789.91
2023-04-04T18:02:57.010Z,98788.69
2023-04-04T18:05:23.749Z,98786.97
2023-04-04T18:07:50.513Z,98783.16
2023-04-04T18:10:17.634Z,98778.81
2023-04-04T18:12:44.490Z,98778.19
2023-04-04T18:15:11.327Z,98749.72
2023-04-04T18:17:39.663Z,98774.22
2023-04-04T18:20:08.467Z,98771.25
2023-04-04T18:22:35.409Z,98786.25
2023-04-04T18:25:01.939Z,98789.09
2023-04-04T18:27:28.559Z,98787.13
2023-04-04T18:29:55.149Z,98786.69
2023-04-04T18:32:25.592Z,98784.59
2023-04-04T18:34:52.686Z,98791.22
2023-04-04T18:37:19.861Z,98791.59
2023-04-04T18:39:49.007Z,98796.38
2023-04-04T18:42:15.923Z,98790.94
2023-04-04T18:44:42.400Z,98801.16
2023-04-04T18:47:09.338Z,98799.84
2023-04-04T18:49:36.425Z,98797.84
2023-04-04T18:52:03.935Z,98799.19
2023-04-04T18:54:30.812Z,98796.19
2023-04-04T18:56:57.651Z,98800.16
2023-04-04T18:59:24.768Z,98801.97
2023-04-04T19:01:54.078Z,98803.50
2023-04-04T19:04:21.492Z,98821.47
2023-04-04T19:06:53.374Z,98814.06
2023-04-04T19:09:20.787Z,98811.75
2023-04-04T19:11:49.568Z,98820.19
2023-04-04T19:14:16.173Z,98812.13
2023-04-04T19:16:42.900Z,98819.53
2023-04-04T19:19:09.487Z,98813.44
2023-04-04T19:21:36.039Z,98811.81
2023-04-04T19:24:03.190Z,98816.44
2023-04-04T19:26:30.145Z,98818.06
2023-04-04T19:28:56.770Z,98815.56
2023-04-04T19:31:25.137Z,98815.56
2023-04-04T19:33:54.982Z,98814.78
2023-04-04T19:36:21.967Z,98829.75
2023-04-04T19:38:49.269Z,98821.84
2023-04-04T19:41:20.822Z,98824.63
2023-04-04T19:43:48.258Z,98824.94
2023-04-04T19:46:21.532Z,98825.41
2023-04-04T19:48:50.552Z,98827.22
2023-04-04T19:51:17.025Z,98827.84
2023-04-04T19:53:45.742Z,98783.66
2023-04-04T19:56:14.472Z,98820.09
2023-04-04T19:58:41.602Z,98815.31
2023-04-04T20:01:10.290Z,98814.34
2023-04-04T20:03:38.937Z,98815.94
2023-04-04T20:06:12.219Z,98834.72
2023-04-04T20:08:42.542Z,98829.72
2023-04-04T20:11:19.327Z,98826.25
2023-04-04T20:13:46.292Z,98786.13
2023-04-04T20:16:15.051Z,98824.03
2023-04-04T20:18:43.728Z,98825.22
2023-04-04T20:21:24.650Z,98827.53
2023-04-04T20:23:57.753Z,98785.56
2023-04-04T20:26:36.577Z,98828.47
2023-04-04T20:29:06.239Z,98828.94
2023-04-04T20:31:42.393Z,98815.53
2023-04-04T20:34:46.120Z,98827.25
2023-04-04T20:37:24.955Z,98832.94
2023-04-04T20:39:55.351Z,98826.88
2023-04-04T20:42:27.663Z,98829.81
2023-04-04T20:44:55.550Z,98835.19
2023-04-04T20:47:43.444Z,98839.34
2023-04-04T20:50:20.397Z,98843.50
2023-04-04T20:52:57.281Z,98836.34
2023-04-04T20:55:25.452Z,98788.13
2023-04-04T20:57:54.479Z,98836.06
2023-04-04T21:00:33.965Z,98834.38
2023-04-04T21:03:02.621Z,98831.72
2023-04-04T21:05:35.418Z,98833.06
2023-04-04T21:08:03.217Z,98834.66
2023-04-04T21:10:30.167Z,98840.28
2023-04-04T21:13:00.217Z,98842.09
2023-04-04T21:15:38.199Z,98829.88
2023-04-04T21:18:09.625Z,98832.25
2023-04-04T21:20:46.194Z,98834.28
2023-04-04T21:23:27.747Z,98835.28
2023-04-04T21:26:02.450Z,98834.06
2023-04-04T21:28:31.676Z,98835.94
2023-04-04T21:30:59.609Z,98851.91
2023-04-04T21:33:27.728Z,98854.97
2023-04-04T21:35:56.281Z,98843.41
2023-04-04T21:38:29.086Z,98846.25
2023-04-04T21:40:57.646Z,98851.06
2023-04-04T21:43:24.111Z,98840.88
2023-04-04T21:45:50.909Z,98843.81
2023-04-04T21:48:17.629Z,98852.44
2023-04-04T21:50:45.136Z,98839.88
2023-04-04T21:53:11.659Z,98848.69
2023-04-04T21:55:38.166Z,98841.16
2023-04-04T21:58:04.626Z,98840.88
2023-04-04T22:00:31.302Z,98831.22
2023-04-04T22:02:57.831Z,98844.22
2023-04-04T22:05:32.651Z,98839.78
2023-04-04T22:08:05.410Z,98832.78
2023-04-04T22:10:33.037Z,98831.53
2023-04-04T22:12:59.527Z,98841.25
2023-04-04T22:15:30.752Z,98838.53
2023-04-04T22:18:03.859Z,98834.50
2023-04-04T22:20:32.254Z,98796.78
2023-04-04T22:22:59.411Z,98837.78
2023-04-04T22:25:27.434Z,98829.81
2023-04-04T22:27:54.069Z,98819.88
2023-04-04T22:30:21.696Z,98828.13
2023-04-04T22:32:48.497Z,98824.72
2023-04-04T22:35:15.101Z,98822.41
2023-04-04T22:37:42.231Z,98817.34
2023-04-04T22:40:13.217Z,98822.09
2023-04-04T22:42:39.752Z,98822.41
2023-04-04T22:45:07.850Z,98821.41
2023-04-04T22:47:35.500Z,98818.06
2023-04-04T22:50:04.658Z,98817.78
2023-04-04T22:52:31.932Z,98818.13
2023-04-04T22:55:00.334Z,98823.22
2023-04-04T22:57:26.782Z,98817.34
2023-04-04T22:59:53.356Z,98814.31
2023-04-04T23:02:19.848Z,98811.91
2023-04-04T23:04:47.424Z,98820.50
2023-04-04T23:07:14.030Z,98819.03
2023-04-04T23:09:40.519Z,98819.69
2023-04-04T23:12:07.501Z,98808.50
2023-04-04T23:14:38.925Z,98809.72
2023-04-04T23:17:07.016Z,98765.41
2023-04-04T23:19:33.633Z,98813.75
2023-04-04T23:22:00.678Z,98808.22
2023-04-04T23:24:27.536Z,98808.09
2023-04-04T23:26:54.210Z,98805.28
2023-04-04T23:29:20.857Z,98809.38
2023-04-04T23:31:47.349Z,98800.38
2023-04-04T23:34:14.231Z,98798.88
2023-04-04T23:36:41.023Z,98794.34
2023-04-04T23:39:07.490Z,98797.91
2023-04-04T23:41:33.959Z,98800.69
2023-04-04T23:44:00.470Z,98800.63
2023-04-04T23:46:30.329Z,98803.97
2023-04-04T23:48:57.181Z,98799.47
2023-04-04T23:51:26.853Z,98803.63
2023-04-04T23:53:53.415Z,98759.69
2023-04-04T23:56:20.104Z,98741.81
2023-04-04T23:58:46.690Z,98798.78
